X  Fechar Metar - Info de Aeroporto     EBBR Brussels Airport
Temperatura
3°C Temperatura
1°C Ptº Orvalho
87% Humidade



Vento
2 KM/H
1 MPH
0 M/S
1 NÓS



Calmaria
N
Condições Atuais

Area Aguaceiros Area Aguaceiros
Pressão 1007.92 (hPa) - 29.76 (inHg)
Visibilidade 6.2 (milha) - 10 (km)
Aeroporto
Código-Aeropoto EBBR

Localização: Brussels Airport
Distância: 10 (km)

Metar:
EBBR 081520Z VRB01KT 9999 VCSH SCT028 03/01 Q1008 NOSIG

Hora: 08-12-2022 16:20 CET